sensor_id;sensor_type;location;lat;lon;timestamp;temperature;humidity
23681;DHT22;62915;50.832;4.462;2023-06-14T00:00:09;22.00;95.00
23681;DHT22;62915;50.832;4.462;2023-06-14T00:02:41;21.90;95.40
23681;DHT22;62915;50.832;4.462;2023-06-14T00:05:10;21.90;95.50
23681;DHT22;62915;50.832;4.462;2023-06-14T00:07:43;21.70;95.60
23681;DHT22;62915;50.832;4.462;2023-06-14T00:10:30;21.60;96.20
23681;DHT22;62915;50.832;4.462;2023-06-14T00:12:56;21.60;96.50
23681;DHT22;62915;50.832;4.462;2023-06-14T00:15:24;21.50;96.50
23681;DHT22;62915;50.832;4.462;2023-06-14T00:17:53;21.50;96.90
23681;DHT22;62915;50.832;4.462;2023-06-14T00:20:20;21.50;96.60
23681;DHT22;62915;50.832;4.462;2023-06-14T00:22:49;21.50;96.70
23681;DHT22;62915;50.832;4.462;2023-06-14T00:25:15;21.60;96.50
23681;DHT22;62915;50.832;4.462;2023-06-14T00:27:41;21.60;96.40
23681;DHT22;62915;50.832;4.462;2023-06-14T00:30:08;21.60;96.20
23681;DHT22;62915;50.832;4.462;2023-06-14T00:32:44;21.60;96.60
23681;DHT22;62915;50.832;4.462;2023-06-14T00:35:10;21.60;96.80
23681;DHT22;62915;50.832;4.462;2023-06-14T00:37:36;21.60;96.90
23681;DHT22;62915;50.832;4.462;2023-06-14T00:40:05;21.50;97.20
23681;DHT22;62915;50.832;4.462;2023-06-14T00:42:31;21.40;97.80
23681;DHT22;62915;50.832;4.462;2023-06-14T00:44:57;21.40;97.90
23681;DHT22;62915;50.832;4.462;2023-06-14T00:47:23;21.40;97.80
23681;DHT22;62915;50.832;4.462;2023-06-14T00:49:53;21.30;98.30
23681;DHT22;62915;50.832;4.462;2023-06-14T00:52:20;21.20;98.60
23681;DHT22;62915;50.832;4.462;2023-06-14T00:54:46;21.20;98.90
23681;DHT22;62915;50.832;4.462;2023-06-14T00:57:13;21.20;99.00
23681;DHT22;62915;50.832;4.462;2023-06-14T00:59:48;21.20;99.20
23681;DHT22;62915;50.832;4.462;2023-06-14T01:02:17;21.10;99.50
23681;DHT22;62915;50.832;4.462;2023-06-14T01:04:45;21.10;99.50
23681;DHT22;62915;50.832;4.462;2023-06-14T01:07:38;21.10;99.90
23681;DHT22;62915;50.832;4.462;2023-06-14T01:13:19;21.00;99.90
23681;DHT22;62915;50.832;4.462;2023-06-14T01:15:47;21.00;99.90
23681;DHT22;62915;50.832;4.462;2023-06-14T01:18:13;20.90;99.90
23681;DHT22;62915;50.832;4.462;2023-06-14T01:20:43;20.90;99.90
23681;DHT22;62915;50.832;4.462;2023-06-14T01:23:11;21.00;99.90
23681;DHT22;62915;50.832;4.462;2023-06-14T01:25:40;21.10;99.90
23681;DHT22;62915;50.832;4.462;2023-06-14T01:28:10;20.90;99.90
23681;DHT22;62915;50.832;4.462;2023-06-14T01:30:39;20.80;99.90
23681;DHT22;62915;50.832;4.462;2023-06-14T01:33:13;20.80;99.90
23681;DHT22;62915;50.832;4.462;2023-06-14T01:35:43;20.70;99.90
23681;DHT22;62915;50.832;4.462;2023-06-14T01:38:09;20.70;99.90
23681;DHT22;62915;50.832;4.462;2023-06-14T01:40:35;20.70;99.90
23681;DHT22;62915;50.832;4.462;2023-06-14T01:43:04;20.60;99.90
23681;DHT22;62915;50.832;4.462;2023-06-14T01:45:34;20.60;99.90
23681;DHT22;62915;50.832;4.462;2023-06-14T01:48:01;20.50;99.90
23681;DHT22;62915;50.832;4.462;2023-06-14T01:50:31;20.50;99.90
23681;DHT22;62915;50.832;4.462;2023-06-14T01:52:57;20.50;99.90
23681;DHT22;62915;50.832;4.462;2023-06-14T01:55:23;20.40;99.90
23681;DHT22;62915;50.832;4.462;2023-06-14T01:57:50;20.40;99.90
23681;DHT22;62915;50.832;4.462;2023-06-14T02:00:17;20.40;99.90
23681;DHT22;62915;50.832;4.462;2023-06-14T02:02:45;20.50;99.90
23681;DHT22;62915;50.832;4.462;2023-06-14T02:05:14;20.40;99.90
23681;DHT22;62915;50.832;4.462;2023-06-14T02:07:40;20.40;99.90
23681;DHT22;62915;50.832;4.462;2023-06-14T02:10:07;20.40;99.90
23681;DHT22;62915;50.832;4.462;2023-06-14T02:12:32;20.50;99.90
23681;DHT22;62915;50.832;4.462;2023-06-14T02:14:59;20.30;99.90
23681;DHT22;62915;50.832;4.462;2023-06-14T02:17:26;20.30;99.90
23681;DHT22;62915;50.832;4.462;2023-06-14T02:19:52;20.20;99.90
23681;DHT22;62915;50.832;4.462;2023-06-14T02:22:18;20.20;99.90
23681;DHT22;62915;50.832;4.462;2023-06-14T02:24:47;20.20;99.90
23681;DHT22;62915;50.832;4.462;2023-06-14T02:27:13;20.10;99.90
23681;DHT22;62915;50.832;4.462;2023-06-14T02:29:39;20.10;99.90
23681;DHT22;62915;50.832;4.462;2023-06-14T02:32:05;20.20;99.90
23681;DHT22;62915;50.832;4.462;2023-06-14T02:34:34;20.00;99.90
23681;DHT22;62915;50.832;4.462;2023-06-14T02:37:00;20.00;99.90
23681;DHT22;62915;50.832;4.462;2023-06-14T02:39:28;20.00;99.90
23681;DHT22;62915;50.832;4.462;2023-06-14T02:41:54;19.90;99.90
23681;DHT22;62915;50.832;4.462;2023-06-14T02:44:24;20.00;99.90
23681;DHT22;62915;50.832;4.462;2023-06-14T02:46:52;20.10;99.90
23681;DHT22;62915;50.832;4.462;2023-06-14T02:49:18;20.00;99.90
23681;DHT22;62915;50.832;4.462;2023-06-14T02:51:45;20.00;99.90
23681;DHT22;62915;50.832;4.462;2023-06-14T02:54:10;20.00;99.90
23681;DHT22;62915;50.832;4.462;2023-06-14T02:56:36;19.90;99.90
23681;DHT22;62915;50.832;4.462;2023-06-14T02:59:02;19.80;99.90
23681;DHT22;62915;50.832;4.462;2023-06-14T03:01:28;19.90;99.90
23681;DHT22;62915;50.832;4.462;2023-06-14T03:04:03;19.70;99.90
23681;DHT22;62915;50.832;4.462;2023-06-14T03:06:29;19.70;99.90
23681;DHT22;62915;50.832;4.462;2023-06-14T03:09:01;19.70;99.90
23681;DHT22;62915;50.832;4.462;2023-06-14T03:11:30;19.70;99.90
23681;DHT22;62915;50.832;4.462;2023-06-14T03:13:55;19.50;99.90
23681;DHT22;62915;50.832;4.462;2023-06-14T03:16:22;19.60;99.90
23681;DHT22;62915;50.832;4.462;2023-06-14T03:18:51;19.70;99.90
23681;DHT22;62915;50.832;4.462;2023-06-14T03:21:17;19.70;99.90
23681;DHT22;62915;50.832;4.462;2023-06-14T03:23:43;19.50;99.90
23681;DHT22;62915;50.832;4.462;2023-06-14T03:26:09;19.50;99.90
23681;DHT22;62915;50.832;4.462;2023-06-14T03:28:39;19.50;99.90
23681;DHT22;62915;50.832;4.462;2023-06-14T03:31:05;19.50;99.90
23681;DHT22;62915;50.832;4.462;2023-06-14T03:33:34;19.50;99.90
23681;DHT22;62915;50.832;4.462;2023-06-14T03:36:03;19.40;99.90
23681;DHT22;62915;50.832;4.462;2023-06-14T03:38:34;19.30;99.90
23681;DHT22;62915;50.832;4.462;2023-06-14T03:41:00;19.30;99.90
23681;DHT22;62915;50.832;4.462;2023-06-14T03:43:27;19.30;99.90
23681;DHT22;62915;50.832;4.462;2023-06-14T03:45:53;19.30;99.90
23681;DHT22;62915;50.832;4.462;2023-06-14T03:48:19;19.30;99.90
23681;DHT22;62915;50.832;4.462;2023-06-14T03:50:44;19.40;99.90
23681;DHT22;62915;50.832;4.462;2023-06-14T03:53:11;19.40;99.90
23681;DHT22;62915;50.832;4.462;2023-06-14T03:55:37;19.30;99.90
23681;DHT22;62915;50.832;4.462;2023-06-14T03:58:03;19.30;99.90
23681;DHT22;62915;50.832;4.462;2023-06-14T04:00:30;19.40;99.90
23681;DHT22;62915;50.832;4.462;2023-06-14T04:02:57;19.40;99.90
23681;DHT22;62915;50.832;4.462;2023-06-14T04:05:24;19.30;99.90
23681;DHT22;62915;50.832;4.462;2023-06-14T04:07:51;19.30;99.90
23681;DHT22;62915;50.832;4.462;2023-06-14T04:10:17;19.40;99.90
23681;DHT22;62915;50.832;4.462;2023-06-14T04:12:45;19.40;99.90
23681;DHT22;62915;50.832;4.462;2023-06-14T04:15:14;19.20;99.90
23681;DHT22;62915;50.832;4.462;2023-06-14T04:17:40;19.10;99.90
23681;DHT22;62915;50.832;4.462;2023-06-14T04:20:06;19.10;99.90
23681;DHT22;62915;50.832;4.462;2023-06-14T04:22:35;19.20;99.90
23681;DHT22;62915;50.832;4.462;2023-06-14T04:25:01;19.20;99.90
23681;DHT22;62915;50.832;4.462;2023-06-14T04:27:27;19.20;99.90
23681;DHT22;62915;50.832;4.462;2023-06-14T04:29:56;19.20;99.90
23681;DHT22;62915;50.832;4.462;2023-06-14T04:32:28;19.10;99.90
23681;DHT22;62915;50.832;4.462;2023-06-14T04:34:58;19.10;99.90
23681;DHT22;62915;50.832;4.462;2023-06-14T04:37:25;19.00;99.90
23681;DHT22;62915;50.832;4.462;2023-06-14T04:39:55;18.90;99.90
23681;DHT22;62915;50.832;4.462;2023-06-14T04:42:28;18.90;99.90
23681;DHT22;62915;50.832;4.462;2023-06-14T04:45:23;18.90;99.90
23681;DHT22;62915;50.832;4.462;2023-06-14T04:47:59;19.10;99.90
23681;DHT22;62915;50.832;4.462;2023-06-14T04:51:00;19.00;99.90
23681;DHT22;62915;50.832;4.462;2023-06-14T04:54:12;19.10;99.90
23681;DHT22;62915;50.832;4.462;2023-06-14T04:57:24;19.00;99.90
23681;DHT22;62915;50.832;4.462;2023-06-14T04:59:58;19.20;99.90
23681;DHT22;62915;50.832;4.462;2023-06-14T05:02:54;19.30;99.90
23681;DHT22;62915;50.832;4.462;2023-06-14T05:05:52;19.20;99.90
23681;DHT22;62915;50.832;4.462;2023-06-14T05:08:42;19.30;99.90
23681;DHT22;62915;50.832;4.462;2023-06-14T05:11:08;19.30;99.90
23681;DHT22;62915;50.832;4.462;2023-06-14T05:13:33;19.40;99.90
23681;DHT22;62915;50.832;4.462;2023-06-14T05:16:00;19.40;99.90
23681;DHT22;62915;50.832;4.462;2023-06-14T05:18:26;19.50;99.90
23681;DHT22;62915;50.832;4.462;2023-06-14T05:20:52;19.60;99.90
23681;DHT22;62915;50.832;4.462;2023-06-14T05:23:19;19.70;99.90
23681;DHT22;62915;50.832;4.462;2023-06-14T05:25:45;19.70;99.90
23681;DHT22;62915;50.832;4.462;2023-06-14T05:28:11;19.80;99.90
23681;DHT22;62915;50.832;4.462;2023-06-14T05:30:40;19.90;99.90
23681;DHT22;62915;50.832;4.462;2023-06-14T05:33:06;20.10;99.90
23681;DHT22;62915;50.832;4.462;2023-06-14T05:35:31;19.90;99.90
23681;DHT22;62915;50.832;4.462;2023-06-14T05:37:57;20.20;99.90
23681;DHT22;62915;50.832;4.462;2023-06-14T05:40:23;20.30;99.90
23681;DHT22;62915;50.832;4.462;2023-06-14T05:42:48;20.40;99.90
23681;DHT22;62915;50.832;4.462;2023-06-14T05:45:17;20.30;99.90
23681;DHT22;62915;50.832;4.462;2023-06-14T05:47:42;20.30;99.90
23681;DHT22;62915;50.832;4.462;2023-06-14T05:50:08;20.40;99.90
23681;DHT22;62915;50.832;4.462;2023-06-14T05:52:35;20.50;99.90
23681;DHT22;62915;50.832;4.462;2023-06-14T05:55:03;20.60;99.90
23681;DHT22;62915;50.832;4.462;2023-06-14T05:57:28;20.60;99.90
23681;DHT22;62915;50.832;4.462;2023-06-14T05:59:54;20.60;99.90
23681;DHT22;62915;50.832;4.462;2023-06-14T06:02:20;20.70;99.90
23681;DHT22;62915;50.832;4.462;2023-06-14T06:04:46;20.90;99.90
23681;DHT22;62915;50.832;4.462;2023-06-14T06:07:12;21.10;99.90
23681;DHT22;62915;50.832;4.462;2023-06-14T06:09:38;20.90;99.90
23681;DHT22;62915;50.832;4.462;2023-06-14T06:12:06;20.90;99.90
23681;DHT22;62915;50.832;4.462;2023-06-14T06:14:32;20.80;99.90
23681;DHT22;62915;50.832;4.462;2023-06-14T06:16:58;21.00;99.90
23681;DHT22;62915;50.832;4.462;2023-06-14T06:19:25;20.90;99.90
23681;DHT22;62915;50.832;4.462;2023-06-14T06:21:51;20.90;99.90
23681;DHT22;62915;50.832;4.462;2023-06-14T06:24:16;21.00;99.90
23681;DHT22;62915;50.832;4.462;2023-06-14T06:26:42;21.00;99.90
23681;DHT22;62915;50.832;4.462;2023-06-14T06:29:08;21.00;99.90
23681;DHT22;62915;50.832;4.462;2023-06-14T06:31:33;21.00;99.90
23681;DHT22;62915;50.832;4.462;2023-06-14T06:34:00;21.10;99.90
23681;DHT22;62915;50.832;4.462;2023-06-14T06:36:25;21.20;99.90
23681;DHT22;62915;50.832;4.462;2023-06-14T06:38:51;21.40;99.90
23681;DHT22;62915;50.832;4.462;2023-06-14T06:41:18;21.60;99.90
23681;DHT22;62915;50.832;4.462;2023-06-14T06:43:44;21.60;99.90
23681;DHT22;62915;50.832;4.462;2023-06-14T06:46:09;21.80;99.90
23681;DHT22;62915;50.832;4.462;2023-06-14T06:48:37;21.90;99.90
23681;DHT22;62915;50.832;4.462;2023-06-14T06:51:02;22.10;99.90
23681;DHT22;62915;50.832;4.462;2023-06-14T06:53:28;22.10;99.90
23681;DHT22;62915;50.832;4.462;2023-06-14T06:55:54;22.30;99.90
23681;DHT22;62915;50.832;4.462;2023-06-14T06:58:20;22.40;99.90
23681;DHT22;62915;50.832;4.462;2023-06-14T07:00:47;22.40;99.90
23681;DHT22;62915;50.832;4.462;2023-06-14T07:03:13;22.50;99.90
23681;DHT22;62915;50.832;4.462;2023-06-14T07:05:38;22.70;99.90
23681;DHT22;62915;50.832;4.462;2023-06-14T07:08:04;22.60;99.90
23681;DHT22;62915;50.832;4.462;2023-06-14T07:10:32;22.70;99.90
23681;DHT22;62915;50.832;4.462;2023-06-14T07:12:57;22.90;99.90
23681;DHT22;62915;50.832;4.462;2023-06-14T07:15:23;22.90;99.90
23681;DHT22;62915;50.832;4.462;2023-06-14T07:17:50;22.90;99.90
23681;DHT22;62915;50.832;4.462;2023-06-14T07:20:16;22.90;99.90
23681;DHT22;62915;50.832;4.462;2023-06-14T07:22:43;23.10;99.90
23681;DHT22;62915;50.832;4.462;2023-06-14T07:25:12;23.20;99.90
23681;DHT22;62915;50.832;4.462;2023-06-14T07:27:42;23.30;99.30
23681;DHT22;62915;50.832;4.462;2023-06-14T07:30:09;23.30;99.90
23681;DHT22;62915;50.832;4.462;2023-06-14T07:32:35;23.50;99.80
23681;DHT22;62915;50.832;4.462;2023-06-14T07:35:01;23.60;97.60
23681;DHT22;62915;50.832;4.462;2023-06-14T07:37:27;23.50;97.70
23681;DHT22;62915;50.832;4.462;2023-06-14T07:39:53;23.60;98.10
23681;DHT22;62915;50.832;4.462;2023-06-14T07:42:19;23.60;97.80
23681;DHT22;62915;50.832;4.462;2023-06-14T07:44:45;23.60;98.10
23681;DHT22;62915;50.832;4.462;2023-06-14T07:47:11;23.70;97.70
23681;DHT22;62915;50.832;4.462;2023-06-14T07:49:36;23.90;97.00
23681;DHT22;62915;50.832;4.462;2023-06-14T07:52:03;24.10;97.90
23681;DHT22;62915;50.832;4.462;2023-06-14T07:54:30;24.20;97.40
23681;DHT22;62915;50.832;4.462;2023-06-14T07:56:57;24.30;97.10
23681;DHT22;62915;50.832;4.462;2023-06-14T07:59:24;24.50;96.70
23681;DHT22;62915;50.832;4.462;2023-06-14T08:01:50;24.60;95.30
23681;DHT22;62915;50.832;4.462;2023-06-14T08:04:15;24.70;95.70
23681;DHT22;62915;50.832;4.462;2023-06-14T08:06:41;24.90;95.20
23681;DHT22;62915;50.832;4.462;2023-06-14T08:09:11;25.10;95.20
23681;DHT22;62915;50.832;4.462;2023-06-14T08:11:38;25.10;94.10
23681;DHT22;62915;50.832;4.462;2023-06-14T08:14:03;25.30;94.30
23681;DHT22;62915;50.832;4.462;2023-06-14T08:16:30;25.60;94.40
23681;DHT22;62915;50.832;4.462;2023-06-14T08:18:56;25.80;95.10
23681;DHT22;62915;50.832;4.462;2023-06-14T08:21:22;25.80;96.30
23681;DHT22;62915;50.832;4.462;2023-06-14T08:23:47;25.90;95.60
23681;DHT22;62915;50.832;4.462;2023-06-14T08:26:13;26.10;95.80
23681;DHT22;62915;50.832;4.462;2023-06-14T08:28:39;26.00;94.90
23681;DHT22;62915;50.832;4.462;2023-06-14T08:31:05;26.20;94.50
23681;DHT22;62915;50.832;4.462;2023-06-14T08:33:31;26.40;94.30
23681;DHT22;62915;50.832;4.462;2023-06-14T08:35:58;26.50;95.10
23681;DHT22;62915;50.832;4.462;2023-06-14T08:38:24;26.60;95.00
23681;DHT22;62915;50.832;4.462;2023-06-14T08:40:51;26.50;94.30
23681;DHT22;62915;50.832;4.462;2023-06-14T08:43:18;26.60;94.30
23681;DHT22;62915;50.832;4.462;2023-06-14T08:45:46;26.50;93.10
23681;DHT22;62915;50.832;4.462;2023-06-14T08:48:14;26.50;94.10
23681;DHT22;62915;50.832;4.462;2023-06-14T08:50:43;26.60;95.20
23681;DHT22;62915;50.832;4.462;2023-06-14T08:53:13;26.60;93.60
23681;DHT22;62915;50.832;4.462;2023-06-14T08:55:45;26.60;93.60
23681;DHT22;62915;50.832;4.462;2023-06-14T08:58:13;26.80;93.50
23681;DHT22;62915;50.832;4.462;2023-06-14T09:00:43;27.10;93.20
23681;DHT22;62915;50.832;4.462;2023-06-14T09:03:09;27.00;91.30
23681;DHT22;62915;50.832;4.462;2023-06-14T09:05:39;26.80;92.00
23681;DHT22;62915;50.832;4.462;2023-06-14T09:08:05;26.80;93.40
23681;DHT22;62915;50.832;4.462;2023-06-14T09:10:31;26.90;93.20
23681;DHT22;62915;50.832;4.462;2023-06-14T09:13:02;27.10;93.70
23681;DHT22;62915;50.832;4.462;2023-06-14T09:15:29;27.30;92.60
23681;DHT22;62915;50.832;4.462;2023-06-14T09:17:55;27.60;91.40
23681;DHT22;62915;50.832;4.462;2023-06-14T09:20:21;27.70;91.30
23681;DHT22;62915;50.832;4.462;2023-06-14T09:22:49;27.80;92.00
23681;DHT22;62915;50.832;4.462;2023-06-14T09:25:14;28.10;92.00
23681;DHT22;62915;50.832;4.462;2023-06-14T09:27:41;28.00;87.50
23681;DHT22;62915;50.832;4.462;2023-06-14T09:30:09;28.00;88.80
23681;DHT22;62915;50.832;4.462;2023-06-14T09:32:39;28.00;87.90
23681;DHT22;62915;50.832;4.462;2023-06-14T09:35:08;28.20;90.20
23681;DHT22;62915;50.832;4.462;2023-06-14T09:37:35;28.20;85.90
23681;DHT22;62915;50.832;4.462;2023-06-14T09:40:03;28.40;88.20
23681;DHT22;62915;50.832;4.462;2023-06-14T09:42:29;28.60;89.10
23681;DHT22;62915;50.832;4.462;2023-06-14T09:44:57;28.70;88.00
23681;DHT22;62915;50.832;4.462;2023-06-14T09:47:23;29.00;90.10
23681;DHT22;62915;50.832;4.462;2023-06-14T09:49:51;28.90;87.60
23681;DHT22;62915;50.832;4.462;2023-06-14T09:52:18;29.00;90.30
23681;DHT22;62915;50.832;4.462;2023-06-14T09:54:46;28.90;84.00
23681;DHT22;62915;50.832;4.462;2023-06-14T09:57:20;28.70;84.10
23681;DHT22;62915;50.832;4.462;2023-06-14T09:59:47;28.70;84.10
23681;DHT22;62915;50.832;4.462;2023-06-14T10:02:24;28.80;82.90
23681;DHT22;62915;50.832;4.462;2023-06-14T10:04:56;29.00;85.30
23681;DHT22;62915;50.832;4.462;2023-06-14T10:07:25;29.10;82.30
23681;DHT22;62915;50.832;4.462;2023-06-14T10:09:53;29.10;79.10
23681;DHT22;62915;50.832;4.462;2023-06-14T10:12:19;29.00;80.20
23681;DHT22;62915;50.832;4.462;2023-06-14T10:14:49;29.30;84.90
23681;DHT22;62915;50.832;4.462;2023-06-14T10:17:23;29.40;79.60
23681;DHT22;62915;50.832;4.462;2023-06-14T10:19:55;29.20;74.50
23681;DHT22;62915;50.832;4.462;2023-06-14T10:22:32;29.10;74.90
23681;DHT22;62915;50.832;4.462;2023-06-14T10:25:01;29.10;70.60
23681;DHT22;62915;50.832;4.462;2023-06-14T10:27:28;29.30;74.70
23681;DHT22;62915;50.832;4.462;2023-06-14T10:32:22;29.50;75.80
23681;DHT22;62915;50.832;4.462;2023-06-14T10:34:58;29.80;78.80
23681;DHT22;62915;50.832;4.462;2023-06-14T10:37:24;30.10;74.40
23681;DHT22;62915;50.832;4.462;2023-06-14T10:39:50;30.20;73.00
23681;DHT22;62915;50.832;4.462;2023-06-14T10:42:16;30.10;65.10
23681;DHT22;62915;50.832;4.462;2023-06-14T10:44:43;30.10;65.70
23681;DHT22;62915;50.832;4.462;2023-06-14T10:47:34;29.90;65.40
23681;DHT22;62915;50.832;4.462;2023-06-14T10:50:08;29.60;69.10
23681;DHT22;62915;50.832;4.462;2023-06-14T10:52:39;29.70;68.80
23681;DHT22;62915;50.832;4.462;2023-06-14T10:55:17;30.10;69.20
23681;DHT22;62915;50.832;4.462;2023-06-14T10:57:54;30.20;68.40
23681;DHT22;62915;50.832;4.462;2023-06-14T11:00:27;30.20;63.60
23681;DHT22;62915;50.832;4.462;2023-06-14T11:05:55;30.10;65.40
23681;DHT22;62915;50.832;4.462;2023-06-14T11:11:13;29.80;63.20
23681;DHT22;62915;50.832;4.462;2023-06-14T11:13:45;30.00;65.80
23681;DHT22;62915;50.832;4.462;2023-06-14T11:16:12;30.30;65.20
23681;DHT22;62915;50.832;4.462;2023-06-14T11:18:38;30.10;61.80
23681;DHT22;62915;50.832;4.462;2023-06-14T11:21:04;30.10;64.90
23681;DHT22;62915;50.832;4.462;2023-06-14T11:23:30;30.40;66.10
23681;DHT22;62915;50.832;4.462;2023-06-14T11:25:55;30.20;65.10
23681;DHT22;62915;50.832;4.462;2023-06-14T11:28:21;30.30;69.20
23681;DHT22;62915;50.832;4.462;2023-06-14T11:30:49;30.50;65.50
23681;DHT22;62915;50.832;4.462;2023-06-14T11:33:18;30.70;67.10
23681;DHT22;62915;50.832;4.462;2023-06-14T11:35:44;31.00;67.00
23681;DHT22;62915;50.832;4.462;2023-06-14T11:38:11;31.00;66.50
23681;DHT22;62915;50.832;4.462;2023-06-14T11:40:38;30.80;66.80
23681;DHT22;62915;50.832;4.462;2023-06-14T11:43:04;30.90;67.80
23681;DHT22;62915;50.832;4.462;2023-06-14T11:45:30;30.90;62.90
23681;DHT22;62915;50.832;4.462;2023-06-14T11:47:57;30.90;62.70
23681;DHT22;62915;50.832;4.462;2023-06-14T11:50:23;30.30;63.40
23681;DHT22;62915;50.832;4.462;2023-06-14T11:52:59;30.40;65.50
23681;DHT22;62915;50.832;4.462;2023-06-14T11:55:29;30.50;62.50
23681;DHT22;62915;50.832;4.462;2023-06-14T11:57:55;30.30;62.30
23681;DHT22;62915;50.832;4.462;2023-06-14T12:00:25;30.30;63.00
23681;DHT22;62915;50.832;4.462;2023-06-14T12:02:54;30.40;64.70
23681;DHT22;62915;50.832;4.462;2023-06-14T12:05:21;30.70;61.70
23681;DHT22;62915;50.832;4.462;2023-06-14T12:07:48;31.00;63.40
23681;DHT22;62915;50.832;4.462;2023-06-14T12:10:14;30.90;61.70
23681;DHT22;62915;50.832;4.462;2023-06-14T12:12:40;31.00;63.50
23681;DHT22;62915;50.832;4.462;2023-06-14T12:15:08;31.00;65.00
23681;DHT22;62915;50.832;4.462;2023-06-14T12:17:37;31.20;63.70
23681;DHT22;62915;50.832;4.462;2023-06-14T12:20:12;30.90;59.70
23681;DHT22;62915;50.832;4.462;2023-06-14T12:23:13;30.90;66.10
23681;DHT22;62915;50.832;4.462;2023-06-14T12:25:37;31.00;62.30
23681;DHT22;62915;50.832;4.462;2023-06-14T12:28:09;30.80;64.70
23681;DHT22;62915;50.832;4.462;2023-06-14T12:30:36;30.90;61.90
23681;DHT22;62915;50.832;4.462;2023-06-14T12:33:02;30.70;63.60
23681;DHT22;62915;50.832;4.462;2023-06-14T12:35:28;30.80;62.80
23681;DHT22;62915;50.832;4.462;2023-06-14T12:37:54;30.80;60.60
23681;DHT22;62915;50.832;4.462;2023-06-14T12:40:20;30.80;62.40
23681;DHT22;62915;50.832;4.462;2023-06-14T12:42:45;30.70;64.20
23681;DHT22;62915;50.832;4.462;2023-06-14T12:45:14;30.60;65.00
23681;DHT22;62915;50.832;4.462;2023-06-14T12:47:41;30.70;65.30
23681;DHT22;62915;50.832;4.462;2023-06-14T12:50:07;30.90;63.60
23681;DHT22;62915;50.832;4.462;2023-06-14T12:52:32;30.90;60.60
23681;DHT22;62915;50.832;4.462;2023-06-14T12:55:04;30.70;59.10
23681;DHT22;62915;50.832;4.462;2023-06-14T12:57:30;30.80;64.20
23681;DHT22;62915;50.832;4.462;2023-06-14T12:59:56;31.00;61.30
23681;DHT22;62915;50.832;4.462;2023-06-14T13:02:21;31.10;63.40
23681;DHT22;62915;50.832;4.462;2023-06-14T13:04:49;30.90;62.10
23681;DHT22;62915;50.832;4.462;2023-06-14T13:07:14;30.90;60.60
23681;DHT22;62915;50.832;4.462;2023-06-14T13:09:41;30.60;62.20
23681;DHT22;62915;50.832;4.462;2023-06-14T13:12:08;30.50;63.90
23681;DHT22;62915;50.832;4.462;2023-06-14T13:14:34;30.40;62.00
23681;DHT22;62915;50.832;4.462;2023-06-14T13:16:59;30.40;64.60
23681;DHT22;62915;50.832;4.462;2023-06-14T13:19:25;30.20;61.20
23681;DHT22;62915;50.832;4.462;2023-06-14T13:21:51;30.50;64.20
23681;DHT22;62915;50.832;4.462;2023-06-14T13:24:17;30.50;60.20
23681;DHT22;62915;50.832;4.462;2023-06-14T13:26:42;30.50;58.50
23681;DHT22;62915;50.832;4.462;2023-06-14T13:29:08;30.70;60.10
23681;DHT22;62915;50.832;4.462;2023-06-14T13:31:34;30.50;58.90
23681;DHT22;62915;50.832;4.462;2023-06-14T13:34:00;30.30;58.30
23681;DHT22;62915;50.832;4.462;2023-06-14T13:36:25;30.20;58.40
23681;DHT22;62915;50.832;4.462;2023-06-14T13:38:51;30.30;62.10
23681;DHT22;62915;50.832;4.462;2023-06-14T13:41:18;30.30;58.90
23681;DHT22;62915;50.832;4.462;2023-06-14T13:43:43;30.40;58.60
23681;DHT22;62915;50.832;4.462;2023-06-14T13:46:09;30.50;59.30
23681;DHT22;62915;50.832;4.462;2023-06-14T13:48:35;30.40;59.90
23681;DHT22;62915;50.832;4.462;2023-06-14T13:51:00;30.30;55.40
23681;DHT22;62915;50.832;4.462;2023-06-14T13:53:26;30.50;59.30
23681;DHT22;62915;50.832;4.462;2023-06-14T13:55:52;30.70;60.70
23681;DHT22;62915;50.832;4.462;2023-06-14T13:58:19;30.90;57.60
23681;DHT22;62915;50.832;4.462;2023-06-14T14:00:45;30.80;59.40
23681;DHT22;62915;50.832;4.462;2023-06-14T14:03:10;30.90;57.90
23681;DHT22;62915;50.832;4.462;2023-06-14T14:05:36;30.70;57.80
23681;DHT22;62915;50.832;4.462;2023-06-14T14:08:02;30.70;56.40
23681;DHT22;62915;50.832;4.462;2023-06-14T14:10:29;30.60;60.40
23681;DHT22;62915;50.832;4.462;2023-06-14T14:12:55;30.60;56.70
23681;DHT22;62915;50.832;4.462;2023-06-14T14:15:20;30.60;59.00
23681;DHT22;62915;50.832;4.462;2023-06-14T14:17:46;30.40;55.80
23681;DHT22;62915;50.832;4.462;2023-06-14T14:20:12;30.40;57.10
23681;DHT22;62915;50.832;4.462;2023-06-14T14:22:41;30.40;56.70
23681;DHT22;62915;50.832;4.462;2023-06-14T14:25:08;30.40;57.00
23681;DHT22;62915;50.832;4.462;2023-06-14T14:27:33;30.30;56.00
23681;DHT22;62915;50.832;4.462;2023-06-14T14:29:59;30.20;58.10
23681;DHT22;62915;50.832;4.462;2023-06-14T14:32:25;30.40;57.30
23681;DHT22;62915;50.832;4.462;2023-06-14T14:34:51;30.20;58.90
23681;DHT22;62915;50.832;4.462;2023-06-14T14:37:16;30.00;56.40
23681;DHT22;62915;50.832;4.462;2023-06-14T14:39:44;29.80;57.40
23681;DHT22;62915;50.832;4.462;2023-06-14T14:42:11;29.90;59.10
23681;DHT22;62915;50.832;4.462;2023-06-14T14:44:38;29.80;57.90
23681;DHT22;62915;50.832;4.462;2023-06-14T14:47:04;29.70;56.00
23681;DHT22;62915;50.832;4.462;2023-06-14T14:49:31;29.60;57.40
23681;DHT22;62915;50.832;4.462;2023-06-14T14:51:57;29.50;56.10
23681;DHT22;62915;50.832;4.462;2023-06-14T14:54:22;29.80;57.50
23681;DHT22;62915;50.832;4.462;2023-06-14T14:56:49;29.80;55.90
23681;DHT22;62915;50.832;4.462;2023-06-14T14:59:14;29.80;56.60
23681;DHT22;62915;50.832;4.462;2023-06-14T15:01:40;29.90;58.50
23681;DHT22;62915;50.832;4.462;2023-06-14T15:04:06;29.90;56.60
23681;DHT22;62915;50.832;4.462;2023-06-14T15:06:31;29.90;57.30
23681;DHT22;62915;50.832;4.462;2023-06-14T15:09:01;29.50;56.40
23681;DHT22;62915;50.832;4.462;2023-06-14T15:11:26;29.60;56.60
23681;DHT22;62915;50.832;4.462;2023-06-14T15:13:52;29.40;55.10
23681;DHT22;62915;50.832;4.462;2023-06-14T15:16:18;29.20;57.70
23681;DHT22;62915;50.832;4.462;2023-06-14T15:18:44;29.10;58.10
23681;DHT22;62915;50.832;4.462;2023-06-14T15:21:10;29.20;58.80
23681;DHT22;62915;50.832;4.462;2023-06-14T15:23:35;29.10;56.90
23681;DHT22;62915;50.832;4.462;2023-06-14T15:26:01;29.00;58.60
23681;DHT22;62915;50.832;4.462;2023-06-14T15:28:27;28.70;56.70
23681;DHT22;62915;50.832;4.462;2023-06-14T15:30:55;28.80;57.90
23681;DHT22;62915;50.832;4.462;2023-06-14T15:33:21;28.70;59.30
23681;DHT22;62915;50.832;4.462;2023-06-14T15:35:46;28.50;58.60
23681;DHT22;62915;50.832;4.462;2023-06-14T15:38:12;28.40;58.70
23681;DHT22;62915;50.832;4.462;2023-06-14T15:40:38;28.20;58.50
23681;DHT22;62915;50.832;4.462;2023-06-14T15:43:03;28.30;59.30
23681;DHT22;62915;50.832;4.462;2023-06-14T15:45:29;28.10;57.60